Contacto @
curve curve curve curve

ESCUELA DE PILOTOS

Escuela de Pilotos

CONTACTO INFORMACIÓN CURSO INTENSIVO PILOTO PRIVADO DE AVIÓN



Para más información, llamar al 972 23 41 26, enviar un email a info@aerbrava.com o rellenar el siguiente formulario.

Los campos marcados (*) son obligatorios

Nombre:
  

Teléfono:
  

*Email:
  

*Repita Email:
  

Texto:
  

He leído y acepto el tratamiento de datos personales y la política de privacidad

Matrícula abierta Piloto RPAs - Drones - UAVs.
Martes
25 Abril de 2017
Página cargada a las 10:28 UTC
Orto: 04:55 UTC
Ocaso: 18:38 UTC

2017/04/25 10:00 LEGE 251000Z 17013KT 130V230 9999 FEW035 20/08 Q1009


2017/04/25 06:27 TAF LEGE 250500Z 2506/2606 18006KT 9999 FEW020 TX25/2512Z TN09/2506Z BECMG 2509/2512 18014KT TEMPO 2514/2517 18015G30KT BECMG 2521/2523 VRB05KT TEMPO 2600/2606 4000 RA BKN010
Sólo se muestran los aviones equipados con el sistema ADS-B en directo desde FlightRadar24
Aerbrava en el facebook Aerbrava en el youtube Aerbrava en el twitter Google+
Instagram tumblr flikr
logo inicio Nosotros | Mapa del sitio | Oportunidades profesionales | Privacidad | Contacte con nosotros | © 2017 AERBRAVA, SCP